Time;durP1;ratioP1;P1;durP2;ratioP2;P2;SDS_P1;SDS_P2;PMS_P1;PMS_P2;Temp;Humidity;BMP_temperature;BMP_pressure;BME280_temperature;BME280_humidity;BME280_pressure;Samples;Min_cycle;Max_cycle;Signal;HPM_P1;HPM_P2
2023/07/29 00:01:37;;;;;;;3.42;2.88;;;21.20;69.00;;;;;;5122033;27;20234;-66
2023/07/29 00:04:03;;;;;;;2.72;2.50;;;21.20;69.00;;;;;;5112805;28;20165;-66
2023/07/29 00:06:28;;;;;;;3.30;3.00;;;21.20;69.10;;;;;;5113223;28;20193;-65
2023/07/29 00:08:54;;;;;;;3.90;3.08;;;21.10;69.00;;;;;;5112184;28;20177;-65
2023/07/29 00:11:19;;;;;;;3.47;3.17;;;21.10;69.00;;;;;;5112602;28;20563;-64
2023/07/29 00:13:47;;;;;;;3.47;3.17;;;21.10;68.90;;;;;;5112789;28;20620;-65
2023/07/29 00:16:12;;;;;;;4.03;3.22;;;21.10;68.90;;;;;;5111543;28;20589;-65
2023/07/29 00:18:38;;;;;;;4.18;3.78;;;21.10;69.00;;;;;;5112886;28;20178;-65
2023/07/29 00:21:04;;;;;;;4.38;4.03;;;21.10;69.10;;;;;;5116928;28;20165;-64
2023/07/29 00:23:29;;;;;;;3.65;3.20;;;21.10;69.10;;;;;;5116076;28;20259;-64
2023/07/29 00:25:55;;;;;;;3.45;3.15;;;21.10;68.90;;;;;;5116994;28;20177;-64
2023/07/29 00:28:20;;;;;;;3.50;3.20;;;21.10;69.00;;;;;;5116849;28;20169;-64
2023/07/29 00:30:46;;;;;;;4.18;3.80;;;21.10;69.00;;;;;;5116243;28;20179;-65
2023/07/29 00:33:12;;;;;;;4.35;3.50;;;21.10;69.00;;;;;;5116627;28;20169;-65
2023/07/29 00:35:37;;;;;;;4.53;4.05;;;21.00;69.00;;;;;;5116779;28;20184;-65
2023/07/29 00:38:03;;;;;;;3.80;3.40;;;21.10;69.10;;;;;;5115640;27;20213;-66
2023/07/29 00:40:28;;;;;;;3.83;3.53;;;21.10;69.10;;;;;;5116663;28;20217;-66
2023/07/29 00:42:54;;;;;;;4.70;3.38;;;21.10;69.10;;;;;;5115681;28;20185;-65
2023/07/29 00:45:20;;;;;;;4.22;3.40;;;21.00;69.00;;;;;;5116458;28;20166;-65
2023/07/29 00:47:45;;;;;;;4.75;3.97;;;21.00;68.90;;;;;;5116378;28;20169;-64
2023/07/29 00:50:11;;;;;;;4.05;3.65;;;21.00;69.00;;;;;;5097361;28;20181;-64
2023/07/29 00:52:37;;;;;;;4.43;3.90;;;21.00;69.00;;;;;;5115915;28;20184;-64
2023/07/29 00:55:04;;;;;;;4.75;3.80;;;21.00;68.90;;;;;;5097868;28;20177;-65
2023/07/29 00:57:29;;;;;;;5.18;4.10;;;21.00;68.90;;;;;;5097537;28;20211;-65
2023/07/29 00:59:55;;;;;;;3.97;3.67;;;21.00;68.90;;;;;;5098306;28;20526;-65
2023/07/29 01:02:21;;;;;;;5.45;3.80;;;21.00;68.90;;;;;;5097878;28;20173;-66
2023/07/29 01:04:56;;;;;;;4.20;3.70;;;21.00;68.80;;;;;;5115572;28;20188;-65
2023/07/29 01:07:26;;;;;;;4.05;3.75;;;21.00;68.70;;;;;;5099099;28;20177;-66
2023/07/29 01:10:31;;;;;;;4.18;3.80;;;21.00;68.80;;;;;;5116011;28;20169;-65
2023/07/29 01:13:21;;;;;;;3.72;3.42;;;21.00;68.80;;;;;;5099528;28;20217;-65
2023/07/29 01:16:01;;;;;;;3.60;3.30;;;21.00;68.70;;;;;;5115814;28;20254;-65
2023/07/29 01:18:28;;;;;;;3.17;2.88;;;21.00;68.70;;;;;;5096799;28;20220;-65
2023/07/29 01:20:54;;;;;;;3.67;3.38;;;21.00;68.60;;;;;;5115765;28;20169;-65
2023/07/29 01:23:24;;;;;;;5.32;3.80;;;21.00;68.60;;;;;;5115662;28;20177;-65
2023/07/29 01:25:50;;;;;;;3.65;3.35;;;21.00;69.40;;;;;;5096822;28;20165;-64
2023/07/29 01:28:15;;;;;;;3.15;2.95;;;20.90;68.50;;;;;;5115376;28;20672;-65
2023/07/29 01:30:41;;;;;;;5.55;3.47;;;20.90;68.50;;;;;;5095928;28;20340;-65
2023/07/29 01:33:13;;;;;;;3.78;3.28;;;20.90;68.60;;;;;;5096351;28;20210;-65
2023/07/29 01:35:43;;;;;;;3.35;3.05;;;20.90;68.50;;;;;;5097527;28;20173;-66
2023/07/29 01:38:21;;;;;;;3.28;2.97;;;20.90;68.60;;;;;;5097122;28;20675;-66
2023/07/29 01:40:47;;;;;;;3.17;2.60;;;20.90;68.60;;;;;;5080496;28;20726;-67
2023/07/29 01:43:12;;;;;;;4.25;3.75;;;20.90;69.40;;;;;;5096963;28;20177;-65
2023/07/29 01:45:38;;;;;;;3.92;3.13;;;20.90;68.60;;;;;;5097098;28;20175;-65
2023/07/29 01:48:05;;;;;;;3.00;2.70;;;20.90;68.60;;;;;;5114419;28;20177;-65
2023/07/29 01:50:31;;;;;;;3.00;2.80;;;20.90;68.50;;;;;;5115107;28;20169;-65
2023/07/29 01:52:57;;;;;;;4.07;3.40;;;20.90;68.50;;;;;;5114901;28;20181;-64
2023/07/29 01:55:23;;;;;;;2.95;2.75;;;20.90;68.50;;;;;;5114412;28;20176;-65
2023/07/29 01:57:49;;;;;;;3.03;2.83;;;21.00;68.60;;;;;;5115037;28;20209;-65
2023/07/29 02:00:15;;;;;;;3.55;2.58;;;20.90;68.50;;;;;;5113995;28;20180;-66
2023/07/29 02:02:43;;;;;;;3.42;2.90;;;20.90;68.50;;;;;;5115293;28;20229;-66
2023/07/29 02:05:09;;;;;;;3.63;3.00;;;20.90;68.60;;;;;;5115037;28;20184;-66
2023/07/29 02:07:34;;;;;;;2.90;2.70;;;20.90;68.60;;;;;;5114419;28;20173;-65
2023/07/29 02:10:00;;;;;;;2.92;2.70;;;20.90;68.60;;;;;;5114508;28;20179;-65
2023/07/29 02:12:26;;;;;;;2.90;2.38;;;20.90;69.50;;;;;;5114980;28;20184;-65
2023/07/29 02:14:51;;;;;;;2.97;2.70;;;20.90;68.70;;;;;;5114259;28;20306;-65
2023/07/29 02:17:17;;;;;;;2.97;2.70;;;20.90;68.60;;;;;;5114568;28;20292;-65
2023/07/29 02:19:42;;;;;;;2.67;2.47;;;20.90;68.60;;;;;;5114736;28;20632;-64
2023/07/29 02:22:09;;;;;;;4.35;2.60;;;20.90;68.60;;;;;;5113548;28;20635;-65
2023/07/29 02:24:35;;;;;;;3.72;2.70;;;20.90;68.60;;;;;;5114572;28;20303;-65
2023/07/29 02:27:00;;;;;;;2.70;2.50;;;20.90;68.70;;;;;;5114213;28;20260;-64
2023/07/29 02:29:26;;;;;;;2.78;2.58;;;20.90;68.70;;;;;;5113706;28;20206;-65
2023/07/29 02:31:52;;;;;;;2.50;2.30;;;20.90;68.60;;;;;;5114743;28;20173;-65
2023/07/29 02:34:17;;;;;;;2.65;2.45;;;20.90;68.60;;;;;;5114223;28;20266;-66
2023/07/29 02:36:43;;;;;;;2.40;2.20;;;20.90;68.70;;;;;;5113525;28;20208;-66
2023/07/29 02:39:08;;;;;;;2.83;2.50;;;20.90;68.60;;;;;;5114001;28;20211;-65
2023/07/29 02:41:34;;;;;;;2.70;2.50;;;20.90;68.60;;;;;;5113641;28;20225;-65
2023/07/29 02:43:59;;;;;;;3.70;2.80;;;20.90;68.60;;;;;;5113054;28;20256;-65
2023/07/29 02:46:25;;;;;;;2.33;2.22;;;20.90;68.70;;;;;;5114281;28;20230;-65
2023/07/29 02:48:50;;;;;;;2.33;2.13;;;20.80;68.60;;;;;;5113962;28;20234;-64
2023/07/29 02:51:16;;;;;;;2.80;2.60;;;20.90;68.70;;;;;;5113058;28;20222;-63
2023/07/29 02:53:42;;;;;;;4.15;2.50;;;20.80;68.60;;;;;;5114162;28;20575;-64
2023/07/29 02:56:09;;;;;;;2.60;2.40;;;20.90;68.70;;;;;;5113670;28;20188;-65
2023/07/29 02:58:35;;;;;;;2.45;2.25;;;20.90;68.70;;;;;;5113010;28;20569;-65
2023/07/29 03:01:04;;;;;;;2.90;2.70;;;20.90;68.70;;;;;;5113876;28;20207;-66
2023/07/29 03:03:30;;;;;;;2.60;2.40;;;20.90;68.70;;;;;;5113201;28;20230;-65
2023/07/29 03:06:00;;;;;;;2.53;2.33;;;20.90;68.70;;;;;;5113579;28;20174;-65
2023/07/29 03:08:25;;;;;;;2.85;2.65;;;20.90;68.70;;;;;;5113746;28;20185;-65
2023/07/29 03:10:51;;;;;;;2.10;2.00;;;20.80;69.50;;;;;;5112841;28;20279;-65
2023/07/29 03:13:16;;;;;;;2.58;2.38;;;20.80;68.60;;;;;;5113253;28;20169;-64
2023/07/29 03:15:42;;;;;;;2.40;2.10;;;20.80;68.60;;;;;;5113485;28;20180;-64
2023/07/29 03:18:07;;;;;;;2.67;2.17;;;20.80;68.60;;;;;;5112368;28;20216;-64
2023/07/29 03:20:33;;;;;;;2.20;2.00;;;20.80;68.60;;;;;;5113582;28;20172;-64
2023/07/29 03:22:58;;;;;;;3.03;2.47;;;20.80;68.60;;;;;;5113309;28;20658;-64
2023/07/29 03:25:24;;;;;;;4.15;2.80;;;20.80;68.60;;;;;;5112570;28;20635;-64
2023/07/29 03:27:49;;;;;;;2.75;2.40;;;20.80;68.60;;;;;;5113318;28;20177;-64
2023/07/29 03:30:15;;;;;;;2.78;2.38;;;20.80;68.60;;;;;;5113223;28;20631;-64
2023/07/29 03:32:43;;;;;;;2.28;2.08;;;20.80;68.50;;;;;;5112723;28;20177;-65
2023/07/29 03:35:08;;;;;;;2.25;2.05;;;20.80;68.60;;;;;;5113049;28;20191;-66
2023/07/29 03:37:34;;;;;;;3.10;2.40;;;20.80;68.50;;;;;;5113172;28;20655;-66
2023/07/29 03:40:00;;;;;;;2.33;2.13;;;20.80;68.50;;;;;;5111965;28;20521;-65
2023/07/29 03:42:25;;;;;;;2.50;2.30;;;20.80;68.50;;;;;;5113098;28;20535;-65
2023/07/29 03:44:51;;;;;;;2.60;2.40;;;20.80;68.50;;;;;;5113021;28;20168;-64
2023/07/29 03:47:16;;;;;;;2.40;2.20;;;20.80;68.50;;;;;;5112213;28;20173;-64
2023/07/29 03:49:42;;;;;;;2.50;2.30;;;20.80;68.50;;;;;;5113106;28;20169;-64
2023/07/29 03:52:07;;;;;;;2.63;2.10;;;20.80;68.40;;;;;;5112941;28;20200;-64
2023/07/29 03:54:33;;;;;;;2.47;2.28;;;20.80;68.40;;;;;;5111493;28;20169;-64
2023/07/29 03:56:58;;;;;;;3.20;1.88;;;20.80;69.30;;;;;;5112647;28;20209;-64
2023/07/29 03:59:24;;;;;;;2.83;2.50;;;20.80;68.40;;;;;;5113121;28;20165;-65
2023/07/29 04:01:49;;;;;;;2.63;2.42;;;20.80;68.40;;;;;;5112334;28;20627;-65
2023/07/29 04:04:15;;;;;;;2.60;2.33;;;20.80;69.30;;;;;;5112527;28;20625;-65
2023/07/29 04:06:40;;;;;;;2.28;2.10;;;20.80;68.40;;;;;;5112850;28;20216;-65
2023/07/29 04:09:06;;;;;;;2.70;2.33;;;20.80;68.40;;;;;;5093774;28;20191;-65
2023/07/29 04:11:31;;;;;;;2.10;1.92;;;20.80;68.40;;;;;;5113050;28;20173;-64
2023/07/29 04:13:57;;;;;;;2.40;2.20;;;20.80;68.40;;;;;;5111899;28;20181;-64
2023/07/29 04:16:23;;;;;;;2.50;2.30;;;20.80;68.40;;;;;;5112624;28;20240;-65
2023/07/29 04:18:48;;;;;;;2.50;2.10;;;20.80;69.30;;;;;;5112623;28;20181;-64
2023/07/29 04:21:14;;;;;;;2.17;2.05;;;20.80;68.40;;;;;;5111619;28;20169;-65
2023/07/29 04:23:40;;;;;;;2.10;1.90;;;20.80;68.40;;;;;;5112680;28;20226;-65
2023/07/29 04:26:05;;;;;;;2.15;1.95;;;20.80;68.40;;;;;;5112293;28;20197;-64
2023/07/29 04:28:31;;;;;;;2.08;1.98;;;20.80;68.40;;;;;;5111273;28;20235;-65
2023/07/29 04:30:56;;;;;;;2.38;2.17;;;20.80;68.50;;;;;;5112642;28;20165;-65
2023/07/29 04:33:22;;;;;;;2.60;2.40;;;20.80;69.30;;;;;;5113016;28;20202;-66
2023/07/29 04:35:47;;;;;;;2.15;2.00;;;20.80;69.30;;;;;;5111864;28;20185;-66
2023/07/29 04:38:13;;;;;;;2.10;2.00;;;20.80;68.30;;;;;;5112183;28;20223;-66
2023/07/29 04:40:38;;;;;;;2.25;2.05;;;20.80;68.40;;;;;;5112426;28;20267;-66
2023/07/29 04:43:07;;;;;;;2.40;2.20;;;20.80;68.40;;;;;;5111592;28;20696;-64
2023/07/29 04:45:33;;;;;;;2.42;2.22;;;20.80;68.40;;;;;;5112573;28;20165;-65
2023/07/29 04:47:58;;;;;;;2.50;2.30;;;20.70;68.20;;;;;;5112204;28;20260;-64
2023/07/29 04:50:24;;;;;;;2.05;1.95;;;20.80;68.40;;;;;;5111795;28;20368;-64
2023/07/29 04:52:50;;;;;;;2.97;1.98;;;20.80;68.30;;;;;;5112330;28;20287;-63
2023/07/29 04:55:16;;;;;;;2.42;2.22;;;20.80;68.30;;;;;;5112393;28;20592;-64
2023/07/29 04:57:42;;;;;;;2.08;1.95;;;20.80;68.30;;;;;;5111786;28;20695;-65
2023/07/29 05:00:07;;;;;;;2.67;2.40;;;20.80;68.30;;;;;;5112262;28;20592;-65
2023/07/29 05:02:33;;;;;;;2.03;1.83;;;20.80;68.30;;;;;;5112420;28;20170;-65
2023/07/29 05:04:58;;;;;;;2.10;1.90;;;20.80;68.30;;;;;;5112014;28;20179;-65
2023/07/29 05:07:24;;;;;;;2.58;1.83;;;20.80;68.20;;;;;;5116112;28;20166;-65
2023/07/29 05:09:50;;;;;;;1.90;1.80;;;20.80;68.30;;;;;;5116073;28;20180;-65
2023/07/29 05:12:15;;;;;;;1.85;1.50;;;20.80;68.20;;;;;;5115069;28;20177;-64
2023/07/29 05:14:41;;;;;;;2.38;1.80;;;20.80;68.20;;;;;;5116080;28;20674;-65
2023/07/29 05:17:06;;;;;;;2.22;2.03;;;20.80;68.30;;;;;;5115209;28;20266;-65
2023/07/29 05:19:32;;;;;;;2.13;1.92;;;20.80;68.30;;;;;;5115554;28;20188;-65
2023/07/29 05:21:58;;;;;;;2.03;1.90;;;20.80;68.20;;;;;;5115626;28;20628;-65
2023/07/29 05:24:24;;;;;;;1.83;1.70;;;20.80;68.20;;;;;;5114932;28;20651;-65
2023/07/29 05:26:49;;;;;;;2.38;2.17;;;20.80;68.20;;;;;;5116032;28;20181;-64
2023/07/29 05:29:15;;;;;;;1.85;1.67;;;20.80;68.20;;;;;;5115648;28;20184;-65
2023/07/29 05:31:41;;;;;;;2.05;1.88;;;20.80;68.10;;;;;;5114989;28;20238;-66
2023/07/29 05:34:06;;;;;;;1.90;1.80;;;20.80;68.10;;;;;;5115267;28;20168;-66
2023/07/29 05:36:32;;;;;;;2.00;1.90;;;20.80;68.10;;;;;;5115491;28;20205;-67
2023/07/29 05:38:58;;;;;;;2.50;1.70;;;20.80;68.20;;;;;;5114250;28;20238;-66
2023/07/29 05:41:23;;;;;;;1.92;1.80;;;20.80;68.10;;;;;;5115337;28;20303;-65
2023/07/29 05:43:49;;;;;;;1.92;1.70;;;20.80;68.10;;;;;;5115354;28;20603;-65
2023/07/29 05:46:14;;;;;;;3.10;2.05;;;20.80;68.20;;;;;;5114514;28;20166;-65
2023/07/29 05:48:40;;;;;;;2.60;1.70;;;20.80;68.20;;;;;;5115453;28;20169;-64
2023/07/29 05:51:08;;;;;;;1.80;1.70;;;20.80;68.20;;;;;;5115058;28;20200;-64
2023/07/29 05:53:34;;;;;;;2.50;1.88;;;20.80;68.20;;;;;;5114619;28;20165;-64
2023/07/29 05:55:59;;;;;;;1.90;1.77;;;20.80;68.90;;;;;;5115147;28;20179;-64
2023/07/29 05:58:25;;;;;;;2.60;1.80;;;20.80;68.10;;;;;;5115256;28;20254;-65
2023/07/29 06:00:51;;;;;;;2.05;1.70;;;20.80;68.10;;;;;;5114753;28;20268;-66
2023/07/29 06:03:16;;;;;;;2.40;1.75;;;20.80;68.10;;;;;;5114733;28;20252;-66
2023/07/29 06:05:47;;;;;;;1.83;1.50;;;20.80;68.00;;;;;;5114881;28;20172;-66
2023/07/29 06:08:13;;;;;;;2.95;1.83;;;20.80;67.90;;;;;;5114057;28;20251;-65
2023/07/29 06:10:38;;;;;;;2.63;1.85;;;20.90;68.80;;;;;;5114904;28;20181;-64
2023/07/29 06:13:04;;;;;;;2.00;1.48;;;20.80;67.90;;;;;;5114735;28;20169;-65
2023/07/29 06:15:30;;;;;;;2.35;1.60;;;20.90;67.90;;;;;;5114255;28;20173;-65
2023/07/29 06:17:55;;;;;;;1.95;1.80;;;20.90;67.80;;;;;;5113736;28;20211;-65
2023/07/29 06:20:21;;;;;;;2.13;1.90;;;20.90;67.80;;;;;;5114656;28;20260;-65
2023/07/29 06:22:47;;;;;;;2.00;1.85;;;20.90;67.90;;;;;;5114128;28;20181;-65
2023/07/29 06:25:12;;;;;;;3.22;1.88;;;20.90;67.80;;;;;;5114549;28;20173;-64
2023/07/29 06:27:38;;;;;;;1.70;1.60;;;20.90;67.70;;;;;;5113986;28;20173;-64
2023/07/29 06:30:03;;;;;;;3.42;1.80;;;20.90;67.70;;;;;;5114197;28;20175;-65
2023/07/29 06:32:29;;;;;;;1.75;1.48;;;20.90;67.60;;;;;;5114320;28;20526;-66
2023/07/29 06:34:55;;;;;;;1.77;1.67;;;20.90;67.50;;;;;;5113617;28;20177;-66
2023/07/29 06:37:20;;;;;;;2.42;1.92;;;21.00;67.50;;;;;;5113919;28;20224;-65
2023/07/29 06:39:46;;;;;;;2.20;1.85;;;21.00;67.40;;;;;;5113916;28;20220;-65
2023/07/29 06:42:12;;;;;;;2.33;1.80;;;21.00;67.30;;;;;;5113394;28;20181;-65
2023/07/29 06:44:37;;;;;;;1.70;1.60;;;21.00;67.30;;;;;;5114139;28;20596;-64
2023/07/29 06:47:03;;;;;;;1.80;1.60;;;21.10;67.30;;;;;;5113890;28;20184;-65
2023/07/29 06:49:29;;;;;;;1.85;1.60;;;21.10;67.10;;;;;;5113270;28;20243;-63
2023/07/29 06:51:54;;;;;;;1.42;1.33;;;21.10;67.10;;;;;;5114230;28;20275;-63
2023/07/29 06:54:24;;;;;;;1.90;1.73;;;21.10;67.20;;;;;;5113971;28;20180;-64
2023/07/29 06:56:49;;;;;;;1.67;1.55;;;21.10;67.20;;;;;;5113093;28;20205;-64
2023/07/29 06:59:15;;;;;;;2.63;1.45;;;21.10;67.20;;;;;;5095518;28;20221;-65
2023/07/29 07:01:40;;;;;;;2.05;1.65;;;21.10;67.10;;;;;;5113909;28;20649;-66
2023/07/29 07:04:06;;;;;;;1.90;1.70;;;21.20;67.10;;;;;;5112720;28;20631;-66
2023/07/29 07:06:31;;;;;;;1.90;1.70;;;21.10;67.00;;;;;;5114008;28;20647;-65
2023/07/29 07:08:57;;;;;;;1.70;1.38;;;21.20;67.80;;;;;;5113587;28;20527;-65
2023/07/29 07:11:25;;;;;;;1.70;1.60;;;21.20;66.90;;;;;;5112955;28;20203;-64
2023/07/29 07:13:51;;;;;;;1.92;1.42;;;21.20;66.90;;;;;;5113753;28;20266;-64
2023/07/29 07:16:16;;;;;;;1.83;1.73;;;21.20;66.90;;;;;;5113212;28;20197;-65
2023/07/29 07:18:42;;;;;;;1.50;1.33;;;21.20;66.90;;;;;;5112770;28;20213;-64
2023/07/29 07:21:07;;;;;;;2.28;1.80;;;21.20;66.80;;;;;;5113248;28;20270;-65
2023/07/29 07:23:33;;;;;;;1.63;1.52;;;21.20;66.80;;;;;;5113376;28;20180;-65
2023/07/29 07:25:59;;;;;;;1.63;1.52;;;21.20;66.80;;;;;;5112657;28;20256;-65
2023/07/29 07:28:24;;;;;;;1.83;1.70;;;21.30;66.90;;;;;;5113474;28;20177;-65
2023/07/29 07:30:50;;;;;;;1.70;1.60;;;21.20;66.80;;;;;;5112662;28;20165;-65
2023/07/29 07:33:15;;;;;;;1.75;1.65;;;21.30;66.80;;;;;;5113014;28;20188;-65
2023/07/29 07:35:42;;;;;;;1.65;1.40;;;21.30;66.80;;;;;;5113159;28;20177;-66
2023/07/29 07:38:09;;;;;;;1.50;1.40;;;21.30;66.70;;;;;;5112062;28;20208;-66
2023/07/29 07:40:35;;;;;;;1.95;1.85;;;21.30;66.70;;;;;;5112843;28;20251;-66
2023/07/29 07:43:01;;;;;;;1.65;1.55;;;21.30;66.60;;;;;;5112819;28;20177;-62
2023/07/29 07:45:26;;;;;;;1.60;1.50;;;21.40;66.60;;;;;;5112433;28;20172;-62
2023/07/29 07:47:55;;;;;;;1.65;1.55;;;21.40;66.80;;;;;;5112658;28;20225;-61
2023/07/29 07:50:21;;;;;;;1.70;1.30;;;21.40;66.70;;;;;;5112948;28;20667;-62
2023/07/29 07:52:46;;;;;;;1.98;1.38;;;21.30;66.80;;;;;;5112200;28;20256;-61
2023/07/29 07:55:12;;;;;;;1.67;1.58;;;21.30;66.80;;;;;;5112321;28;20260;-61
2023/07/29 07:57:37;;;;;;;1.58;1.45;;;21.30;66.90;;;;;;5112868;28;20243;-62
2023/07/29 08:00:04;;;;;;;1.70;1.60;;;21.30;67.00;;;;;;5111664;28;20201;-63
2023/07/29 08:02:30;;;;;;;2.72;1.60;;;21.30;67.00;;;;;;5112805;28;20185;-63
2023/07/29 08:04:55;;;;;;;2.63;1.30;;;21.30;67.90;;;;;;5113002;28;20180;-63
2023/07/29 08:07:21;;;;;;;1.92;1.73;;;21.30;67.00;;;;;;5112190;28;20181;-62
2023/07/29 08:09:46;;;;;;;4.35;1.88;;;21.30;67.10;;;;;;5112906;28;20169;-65
2023/07/29 08:12:12;;;;;;;1.60;1.50;;;21.30;67.00;;;;;;5112555;28;20628;-62
2023/07/29 08:14:37;;;;;;;1.80;1.70;;;21.40;67.80;;;;;;5111960;28;20204;-62
2023/07/29 08:17:03;;;;;;;2.42;2.20;;;21.40;67.10;;;;;;5111664;28;20197;-62
2023/07/29 08:19:29;;;;;;;2.67;2.42;;;21.30;67.10;;;;;;5112456;28;20245;-62
2023/07/29 08:21:54;;;;;;;3.88;2.35;;;21.30;68.20;;;;;;5112141;28;20209;-62
2023/07/29 08:24:20;;;;;;;2.83;2.42;;;21.30;67.50;;;;;;5112409;28;20191;-61
2023/07/29 08:26:45;;;;;;;4.78;3.08;;;21.30;67.50;;;;;;5112590;28;20185;-62
2023/07/29 08:29:12;;;;;;;3.33;2.65;;;21.30;67.70;;;;;;5111730;28;20169;-62
2023/07/29 08:31:37;;;;;;;3.22;2.33;;;21.30;67.70;;;;;;5112534;28;20711;-61
2023/07/29 08:34:03;;;;;;;3.08;2.35;;;21.30;67.70;;;;;;5118791;28;20215;-62
2023/07/29 08:36:28;;;;;;;3.03;2.22;;;21.40;67.60;;;;;;5121116;28;20251;-63
2023/07/29 08:38:54;;;;;;;3.25;2.53;;;21.40;67.50;;;;;;5123555;28;20211;-62
2023/07/29 08:41:32;;;;;;;2.97;2.40;;;21.40;67.50;;;;;;5116760;28;20209;-62
2023/07/29 08:44:12;;;;;;;2.53;2.33;;;21.40;67.50;;;;;;5116138;28;20600;-61
2023/07/29 08:46:38;;;;;;;3.28;2.45;;;21.50;67.50;;;;;;5099043;28;20172;-61
2023/07/29 08:49:03;;;;;;;2.90;2.50;;;21.40;67.50;;;;;;5115646;28;20237;-61
2023/07/29 08:51:29;;;;;;;3.35;2.53;;;21.40;67.50;;;;;;5098462;28;20259;-60
2023/07/29 08:53:55;;;;;;;3.15;2.22;;;21.40;67.60;;;;;;5098261;28;20180;-61
2023/07/29 08:56:20;;;;;;;2.10;1.90;;;21.40;67.70;;;;;;5097597;28;20184;-61
2023/07/29 08:58:46;;;;;;;2.50;2.30;;;21.50;67.70;;;;;;5098098;28;20219;-61
2023/07/29 09:01:12;;;;;;;3.15;2.17;;;21.40;68.40;;;;;;5135964;27;20187;-62
2023/07/29 09:03:37;;;;;;;2.50;2.30;;;21.50;67.60;;;;;;5136140;27;20176;-62
2023/07/29 09:06:03;;;;;;;2.75;2.08;;;21.50;67.50;;;;;;5136551;27;20188;-61
2023/07/29 09:08:29;;;;;;;2.70;2.05;;;21.60;67.20;;;;;;5129195;27;20173;-61
2023/07/29 09:10:58;;;;;;;2.40;2.20;;;21.70;67.10;;;;;;5107143;27;20172;-61
2023/07/29 09:13:23;;;;;;;4.70;2.25;;;21.70;66.90;;;;;;5103939;28;20219;-61
2023/07/29 09:15:49;;;;;;;2.33;2.15;;;21.70;67.00;;;;;;5115927;28;20165;-61
2023/07/29 09:18:19;;;;;;;2.35;2.00;;;21.70;67.10;;;;;;5114737;28;20208;-64
2023/07/29 09:20:49;;;;;;;3.28;1.88;;;21.60;67.20;;;;;;5118514;27;20222;-64
2023/07/29 09:23:14;;;;;;;2.00;1.80;;;21.60;67.20;;;;;;5131602;27;20647;-64
2023/07/29 09:25:40;;;;;;;1.85;1.75;;;21.60;67.30;;;;;;5114954;28;20184;-64
2023/07/29 09:28:10;;;;;;;3.40;1.80;;;21.60;67.30;;;;;;5124749;27;20191;-64
2023/07/29 09:30:39;;;;;;;2.58;2.00;;;21.60;68.20;;;;;;5135563;27;20187;-65
2023/07/29 09:33:05;;;;;;;2.15;1.92;;;21.50;67.40;;;;;;5136117;27;20584;-65
2023/07/29 09:35:32;;;;;;;2.78;1.80;;;21.50;67.40;;;;;;5136197;27;20651;-66
2023/07/29 09:37:57;;;;;;;2.40;2.00;;;21.50;67.40;;;;;;5134963;27;20284;-65
2023/07/29 09:40:23;;;;;;;2.35;2.15;;;21.50;67.30;;;;;;5135636;27;20581;-65
2023/07/29 09:42:52;;;;;;;2.25;2.10;;;21.50;67.20;;;;;;5135777;27;20180;-64
2023/07/29 09:45:22;;;;;;;1.95;1.85;;;21.60;67.00;;;;;;5134171;27;20180;-65
2023/07/29 09:47:48;;;;;;;2.20;1.92;;;21.60;67.00;;;;;;5135541;27;20255;-64
2023/07/29 09:50:13;;;;;;;1.95;1.85;;;21.60;67.00;;;;;;5135391;27;20748;-64
2023/07/29 09:52:39;;;;;;;2.90;2.03;;;21.60;67.00;;;;;;5133251;27;20172;-63
2023/07/29 09:55:06;;;;;;;2.00;1.90;;;21.60;67.00;;;;;;5096287;28;20172;-63
2023/07/29 09:57:32;;;;;;;2.13;1.92;;;21.60;67.00;;;;;;5097462;28;20277;-64
2023/07/29 09:59:57;;;;;;;2.10;1.90;;;21.60;66.90;;;;;;5114100;28;20245;-65
2023/07/29 10:02:25;;;;;;;2.28;2.17;;;21.70;67.50;;;;;;5114927;28;20179;-66
2023/07/29 10:04:54;;;;;;;2.58;2.10;;;21.70;66.60;;;;;;5114706;28;20204;-66
2023/07/29 10:07:20;;;;;;;1.98;1.88;;;21.70;66.60;;;;;;5113893;28;20643;-66
2023/07/29 10:09:45;;;;;;;1.98;1.80;;;21.80;66.50;;;;;;5096640;28;20177;-65
2023/07/29 10:12:11;;;;;;;2.40;1.90;;;21.80;66.50;;;;;;5114904;28;20535;-65
2023/07/29 10:14:38;;;;;;;2.08;1.88;;;21.90;66.20;;;;;;5113965;28;20247;-65
2023/07/29 10:17:06;;;;;;;2.20;1.60;;;22.00;66.00;;;;;;5096735;28;20201;-65
2023/07/29 10:19:32;;;;;;;1.90;1.75;;;22.00;66.10;;;;;;5096478;28;20196;-66
2023/07/29 10:21:59;;;;;;;1.85;1.75;;;22.00;66.00;;;;;;5114030;28;20549;-65
2023/07/29 10:24:28;;;;;;;1.95;1.70;;;22.00;65.80;;;;;;5114787;28;20226;-64
2023/07/29 10:26:56;;;;;;;1.90;1.75;;;22.10;65.80;;;;;;5096102;28;20187;-61
2023/07/29 10:29:22;;;;;;;3.00;1.70;;;22.20;65.70;;;;;;5114914;28;20185;-62
2023/07/29 10:31:47;;;;;;;2.13;1.92;;;22.10;65.70;;;;;;5079294;28;20165;-63
2023/07/29 10:34:13;;;;;;;1.60;1.50;;;22.20;65.60;;;;;;5095053;28;20505;-63
2023/07/29 10:36:39;;;;;;;3.15;2.00;;;22.10;65.70;;;;;;5079311;28;20528;-63
2023/07/29 10:39:06;;;;;;;1.58;1.48;;;22.20;65.90;;;;;;5114112;28;20188;-63
2023/07/29 10:41:59;;;;;;;3.78;1.80;;;22.20;66.00;;;;;;5113251;28;20325;-63
2023/07/29 10:44:43;;;;;;;2.33;1.92;;;22.20;66.00;;;;;;5114173;28;20169;-62
2023/07/29 10:47:15;;;;;;;3.45;1.80;;;22.20;66.00;;;;;;5113708;28;20165;-62
2023/07/29 10:49:44;;;;;;;1.65;1.50;;;22.20;66.10;;;;;;5113186;28;20536;-62
2023/07/29 10:52:16;;;;;;;2.22;1.70;;;22.10;66.20;;;;;;5113922;28;20183;-61
2023/07/29 10:54:43;;;;;;;1.70;1.60;;;22.20;66.30;;;;;;5113930;28;20181;-62
2023/07/29 10:57:16;;;;;;;2.72;1.60;;;22.20;66.20;;;;;;5113449;28;20357;-62
2023/07/29 10:59:42;;;;;;;1.50;1.40;;;22.20;66.10;;;;;;5113681;28;20252;-63
2023/07/29 11:02:17;;;;;;;1.92;1.60;;;22.20;66.00;;;;;;5094720;28;20182;-64
2023/07/29 11:04:47;;;;;;;1.63;1.50;;;22.10;66.00;;;;;;5113450;28;20205;-62
2023/07/29 11:07:12;;;;;;;2.20;1.63;;;22.20;66.10;;;;;;5113439;28;20176;-62
2023/07/29 11:09:59;;;;;;;1.88;1.40;;;22.20;66.10;;;;;;5113028;28;20173;-61
2023/07/29 11:12:47;;;;;;;2.25;1.48;;;22.20;66.00;;;;;;5114112;28;20173;-61
2023/07/29 11:15:22;;;;;;;1.40;1.30;;;22.20;65.90;;;;;;5113346;28;20184;-60
2023/07/29 11:17:51;;;;;;;1.92;1.83;;;22.30;65.90;;;;;;5112702;28;20215;-62
2023/07/29 11:20:21;;;;;;;1.90;1.67;;;22.30;65.90;;;;;;5113165;28;20177;-64
2023/07/29 11:22:47;;;;;;;1.77;1.50;;;22.30;65.80;;;;;;5113574;28;20169;-62
2023/07/29 11:25:14;;;;;;;1.85;1.63;;;22.40;65.80;;;;;;5112580;28;20260;-62
2023/07/29 11:27:40;;;;;;;2.20;1.70;;;22.30;65.80;;;;;;5113250;28;20635;-62
2023/07/29 11:30:08;;;;;;;5.53;1.70;;;22.20;65.80;;;;;;5112325;28;20260;-63
2023/07/29 11:32:33;;;;;;;2.33;1.58;;;22.20;65.90;;;;;;5113332;28;20338;-63
2023/07/29 11:35:16;;;;;;;1.88;1.77;;;22.20;66.10;;;;;;5094823;28;20543;-63
2023/07/29 11:37:44;;;;;;;1.75;1.40;;;22.10;66.10;;;;;;5112435;28;20226;-63
2023/07/29 11:40:16;;;;;;;2.35;1.80;;;22.10;66.20;;;;;;5112431;28;20225;-62
2023/07/29 11:42:42;;;;;;;1.75;1.65;;;22.00;66.30;;;;;;5112877;28;20273;-62
2023/07/29 11:45:09;;;;;;;1.45;1.30;;;22.00;66.40;;;;;;5111998;28;20264;-62
2023/07/29 11:47:37;;;;;;;1.23;1.23;;;22.00;66.50;;;;;;5112801;28;20203;-62
2023/07/29 11:50:09;;;;;;;1.60;1.50;;;22.00;66.60;;;;;;5112636;28;20226;-62
2023/07/29 11:52:34;;;;;;;1.48;1.38;;;22.00;66.60;;;;;;5112859;28;20192;-62
2023/07/29 11:55:01;;;;;;;1.73;1.60;;;22.00;66.60;;;;;;5094849;28;20716;-62
2023/07/29 11:57:27;;;;;;;1.55;1.27;;;21.90;66.50;;;;;;5112755;28;20262;-62
2023/07/29 11:59:52;;;;;;;1.40;1.30;;;22.00;66.70;;;;;;5112027;28;20169;-63
2023/07/29 12:02:19;;;;;;;1.85;1.70;;;21.90;66.60;;;;;;5112529;28;20177;-63
2023/07/29 12:04:46;;;;;;;1.70;1.60;;;21.90;66.70;;;;;;5094546;28;20636;-63
2023/07/29 12:07:16;;;;;;;1.52;1.42;;;21.80;66.70;;;;;;5077103;28;20173;-63
2023/07/29 12:09:42;;;;;;;1.48;1.38;;;21.80;66.90;;;;;;5078254;28;20176;-63
2023/07/29 12:12:07;;;;;;;1.60;1.50;;;21.80;67.80;;;;;;5076859;28;20176;-62
2023/07/29 12:14:33;;;;;;;2.20;1.63;;;21.80;67.00;;;;;;5111988;28;20161;-62
2023/07/29 12:17:02;;;;;;;1.75;1.65;;;21.70;66.90;;;;;;5112157;28;20682;-63
2023/07/29 12:19:35;;;;;;;1.77;1.60;;;21.80;67.10;;;;;;5112296;28;20176;-63
2023/07/29 12:22:04;;;;;;;1.50;1.33;;;21.80;67.20;;;;;;5112469;28;20176;-63
2023/07/29 12:24:31;;;;;;;1.52;1.42;;;21.70;67.10;;;;;;5112767;28;20173;-63
2023/07/29 12:26:56;;;;;;;1.50;1.40;;;21.70;67.10;;;;;;5111813;28;20173;-62
2023/07/29 12:29:22;;;;;;;1.58;1.40;;;21.70;67.10;;;;;;5112963;28;20585;-63
2023/07/29 12:31:49;;;;;;;1.40;1.30;;;21.80;67.10;;;;;;5112891;28;20619;-63
2023/07/29 12:34:20;;;;;;;1.60;1.50;;;21.80;67.00;;;;;;5111811;28;20188;-63
2023/07/29 12:36:48;;;;;;;1.30;1.20;;;21.80;66.90;;;;;;5112570;28;20169;-63
2023/07/29 12:39:27;;;;;;;1.58;1.48;;;21.90;66.80;;;;;;5112127;28;20264;-63
2023/07/29 12:41:57;;;;;;;1.40;1.30;;;21.90;66.80;;;;;;5111690;28;20278;-63
2023/07/29 12:44:29;;;;;;;1.70;1.48;;;21.80;66.80;;;;;;5112567;28;20659;-62
2023/07/29 12:46:55;;;;;;;1.50;1.40;;;21.90;66.80;;;;;;5094583;28;20522;-62